Time;durP1;ratioP1;P1;durP2;ratioP2;P2;SDS_P1;SDS_P2;PMS_P1;PMS_P2;Temp;Humidity;BMP_temperature;BMP_pressure;BME280_temperature;BME280_humidity;BME280_pressure;Samples;Min_cycle;Max_cycle;Signal;HPM_P1;HPM_P2
2022/08/16 00:02:09;;;;;;;0.80;0.80;;;;;15.30;95400.00;;;;5115061;28;20194;-57
2022/08/16 00:04:39;;;;;;;0.50;0.50;;;;;15.40;95393.00;;;;5115018;28;20226;-56
2022/08/16 00:07:06;;;;;;;0.83;0.83;;;;;15.40;95398.00;;;;5114978;28;20194;-55
2022/08/16 00:09:33;;;;;;;1.00;1.00;;;;;15.40;95386.00;;;;5114928;28;20229;-56
2022/08/16 00:12:00;;;;;;;0.67;0.67;;;;;15.40;95392.00;;;;5114901;28;20217;-55
2022/08/16 00:14:31;;;;;;;0.50;0.50;;;;;15.40;95401.00;;;;5114783;28;20217;-57
2022/08/16 00:16:58;;;;;;;0.53;0.53;;;;;15.40;95401.00;;;;5114741;28;20314;-55
2022/08/16 00:19:29;;;;;;;0.60;0.60;;;;;15.40;95403.00;;;;5114551;28;20301;-55
2022/08/16 00:21:57;;;;;;;0.70;0.70;;;;;15.20;95403.00;;;;5114483;28;20238;-58
2022/08/16 00:24:26;;;;;;;0.60;0.60;;;;;15.20;95401.00;;;;5115189;28;20686;-56
2022/08/16 00:26:53;;;;;;;0.40;0.40;;;;;15.10;95406.00;;;;5114526;28;20278;-59
2022/08/16 00:29:20;;;;;;;0.70;0.70;;;;;15.10;95403.00;;;;5114597;28;20204;-58
2022/08/16 00:31:49;;;;;;;0.50;0.50;;;;;15.10;95396.00;;;;5114581;28;20275;-58
2022/08/16 00:34:18;;;;;;;0.70;0.70;;;;;15.20;95400.00;;;;5114549;28;20202;-56
2022/08/16 00:36:45;;;;;;;0.83;0.83;;;;;15.20;95399.00;;;;5114529;28;20272;-56
2022/08/16 00:39:13;;;;;;;0.90;0.90;;;;;15.30;95405.00;;;;5114366;28;20228;-56
2022/08/16 00:41:40;;;;;;;0.70;0.60;;;;;15.30;95398.00;;;;5114526;28;20190;-56
2022/08/16 00:44:11;;;;;;;0.90;0.90;;;;;15.30;95391.00;;;;5096238;28;20217;-57
2022/08/16 00:46:44;;;;;;;0.90;0.90;;;;;15.40;95398.00;;;;5114369;28;20254;-57
2022/08/16 00:49:13;;;;;;;0.60;0.60;;;;;15.40;95400.00;;;;5114311;28;20217;-57
2022/08/16 00:51:40;;;;;;;0.90;0.90;;;;;15.40;95396.00;;;;5114240;28;20192;-55
2022/08/16 00:54:08;;;;;;;0.70;0.70;;;;;15.40;95401.00;;;;5114095;28;20225;-55
2022/08/16 00:56:42;;;;;;;6.33;1.53;;;;;15.40;95398.00;;;;5114400;28;20210;-56
2022/08/16 00:59:12;;;;;;;0.50;0.50;;;;;15.40;95404.00;;;;5114103;28;20296;-55
2022/08/16 01:01:39;;;;;;;0.40;0.40;;;;;15.40;95405.00;;;;5114105;28;20325;-55
2022/08/16 01:04:06;;;;;;;0.80;0.80;;;;;15.40;95408.00;;;;5096039;28;20208;-55
2022/08/16 01:06:34;;;;;;;1.10;1.07;;;;;15.40;95409.00;;;;5113891;28;20214;-57
2022/08/16 01:09:04;;;;;;;0.60;0.60;;;;;15.40;95410.00;;;;5113918;28;20185;-56
2022/08/16 01:11:32;;;;;;;0.60;0.60;;;;;15.40;95406.00;;;;5113909;28;20640;-56
2022/08/16 01:14:05;;;;;;;0.57;0.57;;;;;15.30;95403.00;;;;5096027;28;20264;-58
2022/08/16 01:16:32;;;;;;;0.50;0.50;;;;;15.30;95418.00;;;;5113962;28;20308;-56
2022/08/16 01:19:06;;;;;;;0.70;0.70;;;;;15.30;95412.00;;;;5113748;28;20657;-57
2022/08/16 01:21:42;;;;;;;0.50;0.50;;;;;15.30;95404.00;;;;5096011;28;20208;-57
2022/08/16 01:24:19;;;;;;;0.50;0.50;;;;;15.20;95406.00;;;;5113737;28;20220;-55
2022/08/16 01:26:48;;;;;;;0.60;0.60;;;;;15.10;95403.00;;;;5095809;28;20189;-56
2022/08/16 01:29:18;;;;;;;0.60;0.60;;;;;15.00;95402.00;;;;5113685;28;20194;-55
2022/08/16 01:31:45;;;;;;;1.73;1.63;;;;;15.00;95414.00;;;;5113636;28;20267;-56
2022/08/16 01:34:14;;;;;;;2.40;2.23;;;;;15.00;95411.00;;;;5115581;28;20241;-55
2022/08/16 01:36:41;;;;;;;0.80;0.80;;;;;15.00;95405.00;;;;5117368;28;20190;-57
2022/08/16 01:39:13;;;;;;;0.80;0.80;;;;;15.00;95412.00;;;;5117111;28;20253;-55
2022/08/16 01:41:42;;;;;;;0.80;0.80;;;;;15.00;95409.00;;;;5117182;28;20190;-58
2022/08/16 01:44:09;;;;;;;0.63;0.63;;;;;15.00;95409.00;;;;5117093;28;20652;-55
2022/08/16 01:46:39;;;;;;;1.03;1.03;;;;;15.10;95405.00;;;;5117131;28;20319;-55
2022/08/16 01:49:09;;;;;;;0.60;0.60;;;;;15.20;95402.00;;;;5117080;28;20201;-56
2022/08/16 01:51:37;;;;;;;0.60;0.60;;;;;15.20;95400.00;;;;5116933;28;20222;-56
2022/08/16 01:54:04;;;;;;;0.80;0.80;;;;;15.20;95401.00;;;;5117045;28;20269;-55
2022/08/16 01:56:32;;;;;;;0.83;0.83;;;;;15.30;95398.00;;;;5117018;28;20217;-59
2022/08/16 01:59:03;;;;;;;0.73;0.73;;;;;15.30;95397.00;;;;5116980;28;20234;-55
2022/08/16 02:01:30;;;;;;;1.00;1.00;;;;;15.30;95398.00;;;;5116951;28;20823;-57
2022/08/16 02:03:58;;;;;;;0.60;0.60;;;;;15.40;95398.00;;;;5116872;28;20254;-57
2022/08/16 02:06:24;;;;;;;0.50;0.50;;;;;15.30;95398.00;;;;5098908;28;20652;-56
2022/08/16 02:08:53;;;;;;;2.63;1.67;;;;;15.30;95400.00;;;;5116749;28;20266;-55
2022/08/16 02:11:22;;;;;;;2.00;1.10;;;;;15.10;95390.00;;;;5116642;28;20190;-58
2022/08/16 02:13:49;;;;;;;1.00;1.00;;;;;15.20;95393.00;;;;5116595;28;20710;-57
2022/08/16 02:16:17;;;;;;;0.57;0.57;;;;;15.20;95390.00;;;;5098727;28;20233;-57
2022/08/16 02:18:44;;;;;;;0.50;0.50;;;;;15.20;95402.00;;;;5116543;28;20274;-57
2022/08/16 02:21:12;;;;;;;0.80;0.80;;;;;15.20;95396.00;;;;5098804;28;20194;-57
2022/08/16 02:23:40;;;;;;;0.80;0.80;;;;;15.10;95392.00;;;;5116484;28;20657;-61
2022/08/16 02:26:07;;;;;;;0.50;0.50;;;;;15.10;95392.00;;;;5116551;28;20190;-56
2022/08/16 02:28:34;;;;;;;0.50;0.50;;;;;15.10;95385.00;;;;5098471;28;20312;-55
2022/08/16 02:31:07;;;;;;;0.70;0.70;;;;;15.10;95382.00;;;;5116461;28;20490;-57
2022/08/16 02:33:35;;;;;;;0.80;0.80;;;;;15.20;95384.00;;;;5116460;28;20206;-55
2022/08/16 02:36:02;;;;;;;0.50;0.50;;;;;15.20;95377.00;;;;5116326;28;20221;-55
2022/08/16 02:38:29;;;;;;;0.70;0.70;;;;;15.30;95375.00;;;;5098419;28;20201;-55
2022/08/16 02:40:56;;;;;;;0.57;0.57;;;;;15.30;95376.00;;;;5116139;28;20243;-56
2022/08/16 02:43:24;;;;;;;0.90;0.90;;;;;15.30;95377.00;;;;5116336;28;20266;-57
2022/08/16 02:45:51;;;;;;;0.80;0.80;;;;;15.30;95383.00;;;;5115968;28;20217;-55
2022/08/16 02:48:18;;;;;;;0.50;0.50;;;;;15.40;95376.00;;;;5116433;28;20216;-55
2022/08/16 02:50:45;;;;;;;1.03;1.03;;;;;15.40;95375.00;;;;5116205;28;20531;-56
2022/08/16 02:53:12;;;;;;;0.73;0.73;;;;;15.50;95377.00;;;;5116206;28;20621;-56
2022/08/16 02:55:39;;;;;;;0.77;0.77;;;;;15.30;95363.00;;;;5116166;28;20272;-55
2022/08/16 02:58:07;;;;;;;0.80;0.80;;;;;15.30;95366.00;;;;5115994;28;20603;-60
2022/08/16 03:00:34;;;;;;;0.50;0.50;;;;;15.40;95366.00;;;;5116021;28;20218;-58
2022/08/16 03:03:01;;;;;;;0.70;0.70;;;;;15.30;95369.00;;;;5115990;28;20226;-58
2022/08/16 03:05:28;;;;;;;0.53;0.53;;;;;15.20;95362.00;;;;5097972;28;20617;-55
2022/08/16 03:07:55;;;;;;;0.70;0.70;;;;;15.10;95357.00;;;;5098021;28;20212;-59
2022/08/16 03:10:22;;;;;;;1.27;1.20;;;;;15.00;95370.00;;;;5115769;28;20202;-56
2022/08/16 03:12:49;;;;;;;0.80;0.80;;;;;15.00;95363.00;;;;5097732;28;20194;-58
2022/08/16 03:15:16;;;;;;;0.77;0.77;;;;;15.00;95355.00;;;;5098089;28;20222;-56
2022/08/16 03:17:44;;;;;;;1.30;0.80;;;;;15.10;95356.00;;;;5097992;28;20645;-58
2022/08/16 03:20:16;;;;;;;1.10;1.07;;;;;15.20;95359.00;;;;5115576;28;20236;-56
2022/08/16 03:22:43;;;;;;;1.17;1.17;;;;;15.10;95359.00;;;;5115613;28;20189;-56
2022/08/16 03:25:15;;;;;;;0.83;0.83;;;;;15.10;95356.00;;;;5115494;28;20217;-58
2022/08/16 03:27:42;;;;;;;1.27;1.27;;;;;15.00;95358.00;;;;5115638;28;20190;-56
2022/08/16 03:30:12;;;;;;;0.90;0.90;;;;;15.00;95352.00;;;;5115802;28;20205;-61
2022/08/16 03:32:38;;;;;;;0.70;0.70;;;;;14.90;95356.00;;;;5115780;28;20384;-62
2022/08/16 03:35:06;;;;;;;0.90;0.90;;;;;14.90;95354.00;;;;5115845;28;20197;-59
2022/08/16 03:37:34;;;;;;;1.00;1.00;;;;;14.90;95358.00;;;;5115822;28;20190;-58
2022/08/16 03:40:01;;;;;;;0.60;0.60;;;;;14.90;95356.00;;;;5115221;28;20248;-60
2022/08/16 03:42:28;;;;;;;0.60;0.60;;;;;14.90;95363.00;;;;5097490;28;20229;-56
2022/08/16 03:44:55;;;;;;;0.70;0.70;;;;;14.90;95361.00;;;;5115192;28;20186;-58
2022/08/16 03:47:26;;;;;;;0.87;0.87;;;;;15.00;95364.00;;;;5115123;28;20210;-58
2022/08/16 03:49:52;;;;;;;0.57;0.57;;;;;14.90;95358.00;;;;5115182;28;20205;-57
2022/08/16 03:52:20;;;;;;;0.80;0.80;;;;;14.90;95357.00;;;;5115066;28;20308;-58
2022/08/16 03:54:47;;;;;;;0.50;0.50;;;;;15.00;95355.00;;;;5115047;28;20200;-56
2022/08/16 03:57:15;;;;;;;1.00;0.77;;;;;15.00;95349.00;;;;5096288;28;20533;-56
2022/08/16 03:59:43;;;;;;;0.80;0.80;;;;;15.00;95347.00;;;;5114816;28;20305;-56
2022/08/16 04:02:11;;;;;;;3.30;1.57;;;;;15.00;95343.00;;;;5114809;28;20237;-57
2022/08/16 04:04:39;;;;;;;0.70;0.70;;;;;15.10;95354.00;;;;5114812;28;20193;-58
2022/08/16 04:07:07;;;;;;;1.07;1.07;;;;;15.20;95358.00;;;;5114740;28;20222;-56
2022/08/16 04:09:36;;;;;;;0.90;0.90;;;;;15.10;95354.00;;;;5114782;28;20216;-56
2022/08/16 04:12:04;;;;;;;0.50;0.50;;;;;15.00;95355.00;;;;5114711;28;20233;-57
2022/08/16 04:14:30;;;;;;;0.67;0.67;;;;;15.10;95353.00;;;;5114809;28;20194;-56
2022/08/16 04:17:00;;;;;;;0.90;0.90;;;;;15.20;95359.00;;;;5114669;28;20309;-57
2022/08/16 04:19:27;;;;;;;0.90;0.90;;;;;15.10;95361.00;;;;5114764;28;20229;-56
2022/08/16 04:21:56;;;;;;;0.50;0.50;;;;;15.00;95366.00;;;;5114602;28;20214;-56
2022/08/16 04:24:23;;;;;;;0.80;0.80;;;;;14.90;95364.00;;;;5114697;28;20532;-56
2022/08/16 04:26:50;;;;;;;0.50;0.50;;;;;15.00;95370.00;;;;5096819;28;20526;-58
2022/08/16 04:29:17;;;;;;;0.73;0.73;;;;;14.80;95361.00;;;;5114659;28;20174;-58
2022/08/16 04:31:44;;;;;;;0.67;0.67;;;;;14.90;95362.00;;;;5114441;28;20188;-59
2022/08/16 04:34:13;;;;;;;0.70;0.70;;;;;14.90;95364.00;;;;5096719;28;20200;-58
2022/08/16 04:36:40;;;;;;;0.80;0.80;;;;;15.00;95362.00;;;;5114439;28;20209;-56
2022/08/16 04:39:07;;;;;;;1.00;1.00;;;;;15.00;95368.00;;;;5114472;28;20236;-54
2022/08/16 04:41:34;;;;;;;1.03;1.03;;;;;14.90;95371.00;;;;5114323;28;20186;-56
2022/08/16 04:44:01;;;;;;;1.03;1.03;;;;;15.00;95370.00;;;;5114402;28;20268;-58
2022/08/16 04:46:28;;;;;;;1.40;1.03;;;;;15.00;95373.00;;;;5114350;28;20281;-58
2022/08/16 04:48:58;;;;;;;0.60;0.60;;;;;15.00;95373.00;;;;5114416;28;20194;-62
2022/08/16 04:51:25;;;;;;;0.77;0.77;;;;;15.10;95375.00;;;;5114478;28;20267;-58
2022/08/16 04:53:54;;;;;;;3.40;2.10;;;;;15.20;95376.00;;;;5114249;28;20194;-56
2022/08/16 04:56:21;;;;;;;1.47;1.43;;;;;15.40;95366.00;;;;5114222;28;20197;-55
2022/08/16 04:58:48;;;;;;;1.80;1.53;;;;;15.40;95370.00;;;;5114043;28;20205;-55
2022/08/16 05:01:16;;;;;;;1.77;1.13;;;;;15.40;95374.00;;;;5114165;28;20210;-56
2022/08/16 05:03:43;;;;;;;0.80;0.80;;;;;15.40;95385.00;;;;5114118;28;20229;-55
2022/08/16 05:06:11;;;;;;;0.90;0.90;;;;;15.30;95379.00;;;;5114047;28;20190;-55
2022/08/16 05:08:38;;;;;;;0.90;0.90;;;;;15.30;95384.00;;;;5094704;28;20600;-55
2022/08/16 05:11:08;;;;;;;0.70;0.70;;;;;15.40;95390.00;;;;5114081;28;20586;-56
2022/08/16 05:13:38;;;;;;;1.03;1.03;;;;;15.20;95396.00;;;;5096165;28;20226;-57
2022/08/16 05:16:08;;;;;;;1.00;1.00;;;;;15.30;95400.00;;;;5096205;28;20193;-56
2022/08/16 05:18:36;;;;;;;1.77;1.67;;;;;15.50;95402.00;;;;5113808;28;20267;-57
2022/08/16 05:21:03;;;;;;;0.80;0.80;;;;;15.70;95400.00;;;;5113951;28;20225;-58
2022/08/16 05:23:30;;;;;;;0.83;0.83;;;;;15.80;95393.00;;;;5113880;28;20223;-58
2022/08/16 05:25:59;;;;;;;1.33;1.33;;;;;15.90;95395.00;;;;5113774;28;20194;-56
2022/08/16 05:28:26;;;;;;;1.10;1.10;;;;;16.10;95394.00;;;;5113667;28;20247;-59
2022/08/16 05:30:53;;;;;;;1.00;1.00;;;;;16.00;95396.00;;;;5113750;28;20202;-56
2022/08/16 05:33:20;;;;;;;0.80;0.80;;;;;16.00;95400.00;;;;5113709;28;20548;-56
2022/08/16 05:35:49;;;;;;;1.00;1.00;;;;;15.70;95385.00;;;;5113776;28;20328;-59
2022/08/16 05:38:16;;;;;;;0.80;0.80;;;;;15.80;95393.00;;;;5113658;28;20807;-58
2022/08/16 05:40:42;;;;;;;0.77;0.77;;;;;15.70;95401.00;;;;5113517;28;20230;-57
2022/08/16 05:43:10;;;;;;;0.80;0.80;;;;;15.70;95397.00;;;;5113274;28;20222;-54
2022/08/16 05:45:37;;;;;;;1.30;1.23;;;;;15.60;95402.00;;;;5113524;28;20331;-54
2022/08/16 05:48:04;;;;;;;1.13;1.13;;;;;15.70;95405.00;;;;5113477;28;20213;-54
2022/08/16 05:50:31;;;;;;;0.93;0.93;;;;;15.70;95415.00;;;;5113410;28;20686;-55
2022/08/16 05:52:58;;;;;;;2.10;0.90;;;;;15.70;95412.00;;;;5113250;28;20230;-55
2022/08/16 05:55:27;;;;;;;0.90;0.90;;;;;15.70;95415.00;;;;5113411;28;20213;-55
2022/08/16 05:57:53;;;;;;;1.17;1.17;;;;;15.80;95424.00;;;;5113234;28;20217;-56
2022/08/16 06:00:21;;;;;;;0.93;0.93;;;;;15.80;95415.00;;;;5113240;28;20729;-57
2022/08/16 06:02:48;;;;;;;1.10;1.10;;;;;15.90;95421.00;;;;5113187;28;20690;-57
2022/08/16 06:05:15;;;;;;;0.80;0.80;;;;;16.00;95416.00;;;;5113298;28;20214;-56
2022/08/16 06:07:43;;;;;;;1.20;1.20;;;;;16.20;95418.00;;;;5113219;28;20186;-55
2022/08/16 06:10:11;;;;;;;1.23;1.13;;;;;16.30;95433.00;;;;5113105;28;20224;-55
2022/08/16 06:12:39;;;;;;;0.47;0.47;;;;;16.40;95432.00;;;;5095121;28;20201;-58
2022/08/16 06:15:11;;;;;;;0.90;0.90;;;;;16.50;95431.00;;;;5112886;28;20316;-55
2022/08/16 06:17:39;;;;;;;1.33;1.30;;;;;16.60;95426.00;;;;5112882;28;20626;-55
2022/08/16 06:20:13;;;;;;;2.33;2.13;;;;;16.70;95428.00;;;;5114469;28;20225;-56
2022/08/16 06:22:39;;;;;;;1.10;1.10;;;;;16.80;95430.00;;;;5116376;28;20198;-56
2022/08/16 06:25:07;;;;;;;1.00;1.00;;;;;16.90;95425.00;;;;5116430;28;20214;-57
2022/08/16 06:27:34;;;;;;;1.17;1.13;;;;;16.90;95420.00;;;;5116591;28;20201;-63
2022/08/16 06:30:01;;;;;;;0.80;0.80;;;;;17.10;95429.00;;;;5116639;28;20638;-56
2022/08/16 06:32:28;;;;;;;0.57;0.57;;;;;17.20;95424.00;;;;5116721;28;20629;-58
2022/08/16 06:34:55;;;;;;;1.77;1.67;;;;;17.10;95425.00;;;;5116514;28;20193;-58
2022/08/16 06:37:22;;;;;;;1.53;1.43;;;;;17.40;95428.00;;;;5116520;28;20239;-57
2022/08/16 06:39:49;;;;;;;1.30;1.30;;;;;17.60;95427.00;;;;5098522;28;20226;-57
2022/08/16 06:42:16;;;;;;;1.40;1.30;;;;;17.50;95426.00;;;;5116492;28;20757;-57
2022/08/16 06:44:43;;;;;;;0.80;0.80;;;;;17.50;95421.00;;;;5116593;28;20233;-60
2022/08/16 06:47:11;;;;;;;1.20;1.20;;;;;17.50;95423.00;;;;5116412;28;20295;-64
2022/08/16 06:49:39;;;;;;;1.60;1.50;;;;;17.50;95421.00;;;;5116367;28;20198;-57
2022/08/16 06:52:07;;;;;;;0.80;0.80;;;;;17.70;95431.00;;;;5116114;28;20198;-57
2022/08/16 06:54:36;;;;;;;0.80;0.80;;;;;17.70;95427.00;;;;5098301;28;20197;-56
2022/08/16 06:57:05;;;;;;;1.73;1.63;;;;;17.80;95424.00;;;;5116324;28;20198;-58
2022/08/16 06:59:32;;;;;;;0.63;0.63;;;;;17.90;95430.00;;;;5116166;28;20232;-56
2022/08/16 07:02:01;;;;;;;1.10;1.10;;;;;18.00;95427.00;;;;5116146;28;20205;-57
2022/08/16 07:04:28;;;;;;;1.07;1.07;;;;;18.10;95429.00;;;;5116079;28;20255;-57
2022/08/16 07:06:58;;;;;;;1.83;1.73;;;;;18.30;95427.00;;;;5116061;28;20511;-58
2022/08/16 07:09:25;;;;;;;1.10;1.00;;;;;18.40;95427.00;;;;5116098;28;20262;-57
2022/08/16 07:11:55;;;;;;;1.77;1.67;;;;;18.50;95431.00;;;;5115967;28;20231;-56
2022/08/16 07:14:22;;;;;;;0.90;0.90;;;;;18.70;95425.00;;;;5115822;28;20210;-57
2022/08/16 07:16:49;;;;;;;0.80;0.80;;;;;18.70;95421.00;;;;5115736;28;20222;-59
2022/08/16 07:19:16;;;;;;;0.83;0.83;;;;;18.90;95426.00;;;;5115613;28;20328;-57
2022/08/16 07:21:43;;;;;;;0.97;0.97;;;;;18.90;95412.00;;;;5097574;28;20588;-60
2022/08/16 07:24:11;;;;;;;0.80;0.80;;;;;19.00;95422.00;;;;5115622;28;20231;-55
2022/08/16 07:26:39;;;;;;;1.73;1.00;;;;;19.20;95431.00;;;;5115521;28;20535;-55
2022/08/16 07:29:06;;;;;;;0.93;0.93;;;;;19.40;95424.00;;;;5115518;28;20218;-56
2022/08/16 07:31:32;;;;;;;1.10;1.07;;;;;19.40;95417.00;;;;5114461;28;20275;-57
2022/08/16 07:33:59;;;;;;;0.57;0.57;;;;;19.50;95409.00;;;;5115333;28;20233;-55
2022/08/16 07:36:26;;;;;;;0.93;0.93;;;;;19.60;95425.00;;;;5115418;28;20675;-55
2022/08/16 07:38:53;;;;;;;1.23;1.23;;;;;19.70;95426.00;;;;5097577;28;20685;-57
2022/08/16 07:41:20;;;;;;;0.90;0.90;;;;;19.70;95427.00;;;;5115289;28;20225;-56
2022/08/16 07:43:48;;;;;;;0.87;0.87;;;;;19.70;95416.00;;;;5115487;28;20214;-57
2022/08/16 07:46:15;;;;;;;1.90;1.77;;;;;19.80;95418.00;;;;5115242;28;20254;-54
2022/08/16 07:48:41;;;;;;;0.70;0.70;;;;;19.90;95419.00;;;;5115246;28;20703;-55
2022/08/16 07:51:08;;;;;;;0.83;0.83;;;;;20.10;95421.00;;;;5115119;28;20256;-56
2022/08/16 07:53:37;;;;;;;1.27;1.17;;;;;20.20;95427.00;;;;5115394;28;20629;-57
2022/08/16 07:56:05;;;;;;;1.07;1.07;;;;;20.40;95431.00;;;;5115086;28;20213;-57
2022/08/16 07:58:32;;;;;;;0.80;0.80;;;;;20.40;95424.00;;;;5097048;28;20220;-57
2022/08/16 08:01:00;;;;;;;2.63;1.57;;;;;20.50;95434.00;;;;5115040;28;20646;-60
2022/08/16 08:03:27;;;;;;;1.10;1.10;;;;;20.60;95432.00;;;;5114987;28;20208;-55
2022/08/16 08:05:54;;;;;;;0.70;0.70;;;;;20.70;95434.00;;;;5097042;28;20225;-55
2022/08/16 08:08:21;;;;;;;0.93;0.93;;;;;20.80;95435.00;;;;5114845;28;20245;-56
2022/08/16 08:10:49;;;;;;;0.80;0.80;;;;;20.80;95436.00;;;;5114920;28;20190;-56
2022/08/16 08:13:16;;;;;;;0.70;0.70;;;;;21.00;95440.00;;;;5115049;28;20233;-54
2022/08/16 08:15:44;;;;;;;1.53;1.43;;;;;21.10;95447.00;;;;5114659;28;20237;-55
2022/08/16 08:18:12;;;;;;;1.77;1.23;;;;;21.20;95443.00;;;;5096881;28;20625;-57
2022/08/16 08:20:40;;;;;;;0.77;0.77;;;;;21.20;95448.00;;;;5114899;28;20313;-62
2022/08/16 08:23:12;;;;;;;0.80;0.80;;;;;21.30;95452.00;;;;5115102;28;20190;-57
2022/08/16 08:25:39;;;;;;;0.82;0.82;;;;;21.40;95446.00;;;;5115330;28;20210;-58
2022/08/16 08:28:06;;;;;;;0.98;0.95;;;;;21.60;95447.00;;;;5114785;28;20190;-57
2022/08/16 08:30:33;;;;;;;2.17;1.77;;;;;21.60;95450.00;;;;5114504;28;20236;-57
2022/08/16 08:33:00;;;;;;;1.00;1.00;;;;;21.60;95446.00;;;;5114693;28;20504;-59
2022/08/16 08:35:28;;;;;;;1.10;1.10;;;;;21.90;95451.00;;;;5116771;28;20186;-59
2022/08/16 08:37:55;;;;;;;0.98;0.98;;;;;22.10;95446.00;;;;5114431;28;20190;-55
2022/08/16 08:40:23;;;;;;;1.23;1.20;;;;;22.10;95459.00;;;;5114280;28;20229;-56
2022/08/16 08:42:51;;;;;;;0.82;0.82;;;;;22.20;95461.00;;;;5114016;28;20313;-55
2022/08/16 08:45:18;;;;;;;1.75;1.25;;;;;22.50;95462.00;;;;5096454;28;20252;-57
2022/08/16 08:47:48;;;;;;;2.78;1.60;;;;;22.60;95463.00;;;;5114228;28;20228;-55
2022/08/16 08:50:16;;;;;;;1.20;1.10;;;;;22.80;95462.00;;;;5114194;28;20217;-55
2022/08/16 08:52:43;;;;;;;0.85;0.85;;;;;22.80;95452.00;;;;5114185;28;20186;-55
2022/08/16 08:55:14;;;;;;;0.77;0.77;;;;;22.90;95462.00;;;;5114352;28;20262;-56
2022/08/16 08:57:44;;;;;;;1.55;1.45;;;;;23.00;95466.00;;;;5114255;28;20230;-57
2022/08/16 09:00:14;;;;;;;0.55;0.55;;;;;22.90;95465.00;;;;5113937;28;20237;-55
2022/08/16 09:02:42;;;;;;;1.10;1.10;;;;;22.80;95462.00;;;;5113935;28;20198;-55
2022/08/16 09:05:09;;;;;;;0.85;0.85;;;;;22.80;95468.00;;;;5113970;28;20224;-57
2022/08/16 09:07:37;;;;;;;1.08;1.08;;;;;22.70;95470.00;;;;5114137;28;20645;-56
2022/08/16 09:10:06;;;;;;;0.95;0.95;;;;;22.90;95464.00;;;;5114078;28;20190;-56
2022/08/16 09:12:33;;;;;;;0.70;0.70;;;;;23.10;95466.00;;;;5095989;28;20190;-57
2022/08/16 09:15:00;;;;;;;1.00;1.00;;;;;22.50;95472.00;;;;5113915;28;20198;-59
2022/08/16 09:17:27;;;;;;;0.80;0.80;;;;;22.60;95470.00;;;;5113721;28;20621;-57
2022/08/16 09:19:54;;;;;;;0.65;0.65;;;;;22.90;95468.00;;;;5113798;28;20210;-57
2022/08/16 09:22:22;;;;;;;0.88;0.88;;;;;23.20;95463.00;;;;5113758;28;20233;-57
2022/08/16 09:24:49;;;;;;;0.40;0.40;;;;;23.40;95469.00;;;;5113770;28;20567;-57
2022/08/16 09:27:17;;;;;;;1.75;0.70;;;;;23.60;95458.00;;;;5113730;28;20190;-56
2022/08/16 09:29:44;;;;;;;1.85;1.70;;;;;23.50;95464.00;;;;5113656;28;20208;-56
2022/08/16 09:32:11;;;;;;;0.98;0.98;;;;;23.70;95465.00;;;;5113711;28;20263;-56
2022/08/16 09:34:38;;;;;;;0.68;0.68;;;;;23.90;95464.00;;;;5113870;28;20281;-55
2022/08/16 09:37:05;;;;;;;0.70;0.70;;;;;23.60;95466.00;;;;5114010;28;20194;-56
2022/08/16 09:39:32;;;;;;;0.55;0.55;;;;;24.00;95471.00;;;;5113401;28;20217;-58
2022/08/16 09:42:01;;;;;;;1.00;1.00;;;;;24.00;95474.00;;;;5113546;28;20659;-58
2022/08/16 09:44:29;;;;;;;0.88;0.88;;;;;24.10;95484.00;;;;5113738;28;20201;-57
2022/08/16 09:46:57;;;;;;;0.80;0.80;;;;;24.00;95480.00;;;;5113477;28;20194;-56
2022/08/16 09:49:25;;;;;;;0.88;0.88;;;;;24.10;95482.00;;;;5113636;28;20248;-59
2022/08/16 09:51:53;;;;;;;1.02;1.02;;;;;24.40;95480.00;;;;5113273;28;20209;-56
2022/08/16 09:54:21;;;;;;;0.80;0.80;;;;;24.50;95476.00;;;;5114068;28;20194;-56
2022/08/16 09:56:48;;;;;;;0.63;0.63;;;;;24.60;95480.00;;;;5116896;28;20298;-55
2022/08/16 09:59:15;;;;;;;0.80;0.80;;;;;24.50;95472.00;;;;5116992;28;20198;-56
2022/08/16 10:01:46;;;;;;;1.20;1.17;;;;;24.40;95470.00;;;;5116760;28;20213;-57
2022/08/16 10:04:14;;;;;;;1.10;1.10;;;;;24.50;95467.00;;;;5116789;28;20233;-56
2022/08/16 10:06:41;;;;;;;0.60;0.60;;;;;24.50;95480.00;;;;5116908;28;20190;-58
2022/08/16 10:09:09;;;;;;;0.60;0.60;;;;;24.50;95472.00;;;;5116792;28;20238;-57
2022/08/16 10:14:22;;;;;;;0.68;0.68;;;;;25.00;95467.00;;;;5116630;28;20225;-57
2022/08/16 10:16:54;;;;;;;1.05;1.05;;;;;25.20;95476.00;;;;5116594;28;20709;-55
2022/08/16 10:19:21;;;;;;;0.55;0.55;;;;;25.30;95479.00;;;;5098378;28;20263;-56
2022/08/16 10:21:48;;;;;;;0.80;0.77;;;;;25.30;95482.00;;;;5116619;28;20343;-56
2022/08/16 10:24:15;;;;;;;0.80;0.80;;;;;25.10;95474.00;;;;5116513;28;20630;-57
2022/08/16 10:26:44;;;;;;;0.90;0.90;;;;;25.00;95478.00;;;;5116486;28;20259;-57
2022/08/16 10:29:11;;;;;;;0.82;0.82;;;;;25.10;95474.00;;;;5098502;28;20258;-56
2022/08/16 10:31:38;;;;;;;1.08;1.08;;;;;25.20;95475.00;;;;5116397;28;20241;-55
2022/08/16 10:34:06;;;;;;;0.95;0.95;;;;;25.00;95484.00;;;;5098466;28;20220;-56
2022/08/16 10:36:33;;;;;;;1.30;1.20;;;;;24.80;95472.00;;;;5098431;28;20233;-56
2022/08/16 10:39:00;;;;;;;0.80;0.80;;;;;24.90;95479.00;;;;5116294;28;20289;-57
2022/08/16 10:41:27;;;;;;;0.77;0.77;;;;;25.00;95472.00;;;;5116117;28;20222;-56
2022/08/16 10:43:54;;;;;;;1.05;1.05;;;;;25.40;95483.00;;;;5116037;28;20210;-56
2022/08/16 10:46:21;;;;;;;1.02;1.02;;;;;25.30;95494.00;;;;5116093;28;20272;-56
2022/08/16 10:48:48;;;;;;;0.82;0.82;;;;;25.30;95486.00;;;;5115966;28;20546;-56
2022/08/16 10:51:15;;;;;;;0.65;0.65;;;;;25.30;95483.00;;;;5116178;28;20204;-56
2022/08/16 10:53:44;;;;;;;1.38;1.27;;;;;25.40;95487.00;;;;5116077;28;20190;-58
2022/08/16 10:56:12;;;;;;;1.10;1.10;;;;;25.40;95476.00;;;;5116005;28;20268;-56
2022/08/16 10:58:40;;;;;;;0.95;0.95;;;;;25.90;95466.00;;;;5115993;28;20189;-56
2022/08/16 11:01:08;;;;;;;0.93;0.90;;;;;26.00;95463.00;;;;5115757;28;20272;-58
2022/08/16 11:03:36;;;;;;;0.40;0.40;;;;;26.20;95483.00;;;;5116236;28;20204;-56
2022/08/16 11:06:06;;;;;;;1.27;1.27;;;;;26.20;95499.00;;;;5114608;28;20238;-58
2022/08/16 11:08:34;;;;;;;1.25;1.15;;;;;26.10;95500.00;;;;5116008;28;20621;-56
2022/08/16 11:11:01;;;;;;;0.88;0.88;;;;;26.00;95485.00;;;;5115831;28;20702;-58
2022/08/16 11:13:28;;;;;;;1.08;1.08;;;;;26.00;95486.00;;;;5115790;28;20190;-58
2022/08/16 11:15:56;;;;;;;0.93;0.93;;;;;26.10;95493.00;;;;5115861;28;20208;-56
2022/08/16 11:18:28;;;;;;;0.90;0.90;;;;;26.00;95466.00;;;;5115739;28;20665;-56
2022/08/16 11:20:55;;;;;;;0.70;0.70;;;;;26.40;95468.00;;;;5115678;28;20247;-57
2022/08/16 11:23:22;;;;;;;0.80;0.80;;;;;26.90;95466.00;;;;5115743;28;20218;-58
2022/08/16 11:25:50;;;;;;;0.80;0.80;;;;;26.70;95493.00;;;;5115679;28;20194;-57
2022/08/16 11:28:18;;;;;;;1.15;1.15;;;;;26.60;95489.00;;;;5115589;28;20190;-56
2022/08/16 11:30:45;;;;;;;0.60;0.60;;;;;26.50;95466.00;;;;5115466;28;20289;-57
2022/08/16 11:33:15;;;;;;;0.70;0.70;;;;;26.70;95466.00;;;;5115602;28;20194;-58
2022/08/16 11:35:42;;;;;;;0.88;0.88;;;;;27.00;95461.00;;;;5115680;28;20217;-55
2022/08/16 11:38:13;;;;;;;0.93;0.93;;;;;27.50;95460.00;;;;5097928;28;20194;-58
2022/08/16 11:40:47;;;;;;;1.13;1.13;;;;;27.50;95459.00;;;;5097407;28;20244;-56
2022/08/16 11:43:18;;;;;;;0.95;0.95;;;;;27.10;95478.00;;;;5115433;28;20194;-58
2022/08/16 11:45:46;;;;;;;0.90;0.90;;;;;27.20;95484.00;;;;5115514;28;20194;-59
2022/08/16 11:48:13;;;;;;;0.93;0.93;;;;;27.20;95467.00;;;;5115139;28;20197;-55
2022/08/16 11:50:41;;;;;;;1.35;1.25;;;;;27.30;95453.00;;;;5115519;28;20206;-56
2022/08/16 11:53:11;;;;;;;2.33;2.17;;;;;27.30;95483.00;;;;5118774;28;20648;-57
2022/08/16 11:55:39;;;;;;;1.52;1.42;;;;;27.60;95459.00;;;;5115221;28;20290;-61
2022/08/16 11:58:08;;;;;;;1.00;1.00;;;;;28.10;95462.00;;;;5115017;28;20305;-56
2022/08/16 12:00:37;;;;;;;1.10;1.10;;;;;28.60;95451.00;;;;5115005;28;20241;-54
2022/08/16 12:03:04;;;;;;;1.13;1.13;;;;;28.70;95481.00;;;;5096945;28;20289;-55
2022/08/16 12:05:31;;;;;;;0.80;0.80;;;;;28.70;95446.00;;;;5114988;28;20300;-57
2022/08/16 12:07:58;;;;;;;1.30;1.30;;;;;28.20;95478.00;;;;5115112;28;20671;-57
2022/08/16 12:10:27;;;;;;;0.77;0.77;;;;;27.90;95475.00;;;;5114878;28;20240;-54
2022/08/16 12:12:54;;;;;;;0.60;0.60;;;;;27.30;95470.00;;;;5114855;28;20194;-56
2022/08/16 12:15:21;;;;;;;0.75;0.75;;;;;27.00;95440.00;;;;5096845;28;20221;-56
2022/08/16 12:17:49;;;;;;;1.05;1.05;;;;;27.20;95470.00;;;;5114343;28;20194;-55
2022/08/16 12:20:17;;;;;;;0.85;0.85;;;;;27.60;95445.00;;;;5114572;28;20278;-57
2022/08/16 12:22:45;;;;;;;0.60;0.60;;;;;27.90;95441.00;;;;5114749;28;20190;-55
2022/08/16 12:25:14;;;;;;;0.65;0.65;;;;;28.00;95468.00;;;;5114667;28;20205;-55